createdAt,value
2018-10-17T00:01:33.509Z,58.80
2018-10-17T00:03:36.429Z,59.40
2018-10-17T00:05:40.094Z,58.90
2018-10-17T00:07:42.989Z,58.80
2018-10-17T00:09:47.429Z,59.00
2018-10-17T00:11:51.067Z,59.70
2018-10-17T00:13:54.005Z,59.00
2018-10-17T00:15:57.685Z,59.10
2018-10-17T00:18:02.080Z,59.10
2018-10-17T00:20:04.967Z,59.10
2018-10-17T00:22:07.902Z,59.00
2018-10-17T00:24:12.092Z,59.20
2018-10-17T00:26:15.013Z,59.10
2018-10-17T00:28:17.941Z,59.20
2018-10-17T00:30:22.549Z,59.40
2018-10-17T00:32:26.793Z,59.40
2018-10-17T00:34:31.293Z,59.60
2018-10-17T00:36:34.177Z,59.50
2018-10-17T00:38:37.879Z,59.60
2018-10-17T00:40:42.312Z,59.80
2018-10-17T00:42:45.993Z,59.80
2018-10-17T00:44:49.661Z,59.90
2018-10-17T00:46:52.682Z,59.80
2018-10-17T00:48:56.817Z,60.90
2018-10-17T00:50:59.701Z,60.00
2018-10-17T00:53:04.076Z,60.20
2018-10-17T00:55:07.725Z,60.30
2018-10-17T00:57:10.557Z,60.30
2018-10-17T00:59:15.165Z,60.40
2018-10-17T01:01:18.002Z,60.40
2018-10-17T01:03:21.565Z,60.40
2018-10-17T01:05:25.356Z,60.50
2018-10-17T01:07:28.242Z,60.40
2018-10-17T01:09:31.121Z,60.40
2018-10-17T01:11:34.329Z,60.40
2018-10-17T01:13:37.985Z,60.70
2018-10-17T01:15:40.869Z,60.60
2018-10-17T01:17:43.806Z,60.60
2018-10-17T01:19:47.472Z,60.80
2018-10-17T01:21:51.880Z,60.70
2018-10-17T01:23:55.217Z,60.60
2018-10-17T01:25:58.106Z,60.70
2018-10-17T01:28:01.459Z,60.70
2018-10-17T01:30:05.653Z,61.30
2018-10-17T01:32:10.058Z,60.90
2018-10-17T01:34:12.973Z,60.70
2018-10-17T01:36:16.657Z,61.00
2018-10-17T01:38:19.537Z,61.00
2018-10-17T01:40:22.423Z,61.00
2018-10-17T01:42:25.438Z,61.10
2018-10-17T01:44:29.105Z,61.20
2018-10-17T01:46:32.007Z,61.10
2018-10-17T01:48:35.982Z,61.60
2018-10-17T01:50:38.869Z,61.20
2018-10-17T01:52:43.265Z,61.10
2018-10-17T01:54:46.172Z,61.10
2018-10-17T01:56:49.834Z,61.30
2018-10-17T01:58:52.760Z,61.30
2018-10-17T02:00:56.506Z,61.40
2018-10-17T02:02:59.430Z,61.30
2018-10-17T02:05:02.364Z,61.40
2018-10-17T02:07:05.338Z,61.40
2018-10-17T02:09:08.639Z,61.50
2018-10-17T02:11:11.647Z,61.60
2018-10-17T02:13:14.556Z,61.80
2018-10-17T02:15:17.366Z,61.70
2018-10-17T02:17:20.759Z,61.80
2018-10-17T02:19:24.400Z,61.70
2018-10-17T02:21:27.297Z,61.70
2018-10-17T02:23:30.936Z,61.80
2018-10-17T02:25:33.853Z,61.90
2018-10-17T02:27:36.740Z,62.00
2018-10-17T02:29:39.624Z,62.10
2018-10-17T02:31:42.624Z,62.20
2018-10-17T02:33:45.545Z,62.20
2018-10-17T02:35:48.451Z,62.30
2018-10-17T02:37:51.369Z,62.40
2018-10-17T02:39:54.277Z,62.30
2018-10-17T02:41:57.924Z,62.50
2018-10-17T02:44:00.825Z,62.30
2018-10-17T02:46:03.708Z,62.40
2018-10-17T02:48:06.630Z,62.50
2018-10-17T02:50:09.681Z,62.60
2018-10-17T02:52:13.366Z,63.00
2018-10-17T02:54:16.254Z,62.90
2018-10-17T02:56:19.969Z,63.20
2018-10-17T02:58:23.636Z,63.40
2018-10-17T03:00:26.549Z,63.30
2018-10-17T03:02:30.229Z,63.50
2018-10-17T03:04:33.220Z,63.50
2018-10-17T03:06:36.149Z,63.60
2018-10-17T03:08:39.117Z,63.60
2018-10-17T03:10:42.764Z,63.80
2018-10-17T03:12:45.651Z,63.70
2018-10-17T03:14:48.758Z,63.80
2018-10-17T03:16:51.764Z,63.80
2018-10-17T03:18:56.169Z,64.00
2018-10-17T03:20:59.041Z,63.80
2018-10-17T03:23:02.763Z,63.70
2018-10-17T03:25:07.169Z,63.60
2018-10-17T03:27:10.063Z,63.60
2018-10-17T03:29:13.738Z,63.50
2018-10-17T03:31:16.976Z,63.40
2018-10-17T03:33:19.916Z,63.60
2018-10-17T03:35:23.575Z,63.90
2018-10-17T03:37:26.470Z,63.90
2018-10-17T03:39:29.390Z,63.90
2018-10-17T03:41:32.391Z,64.00
2018-10-17T03:43:36.029Z,64.20
2018-10-17T03:45:38.960Z,64.10
2018-10-17T03:47:41.948Z,64.00
2018-10-17T03:49:45.718Z,64.10
2018-10-17T03:51:48.638Z,64.00
2018-10-17T03:53:51.513Z,64.10
2018-10-17T03:55:54.398Z,64.20
2018-10-17T03:57:57.416Z,64.10
2018-10-17T04:00:00.306Z,64.10
2018-10-17T04:02:03.202Z,64.10
2018-10-17T04:04:07.825Z,64.20
2018-10-17T04:06:11.493Z,65.10
2018-10-17T04:08:14.443Z,64.20
2018-10-17T04:10:18.115Z,64.20
2018-10-17T04:12:21.041Z,64.20
2018-10-17T04:14:24.340Z,64.30
2018-10-17T04:16:27.888Z,64.50
2018-10-17T04:18:31.586Z,65.40
2018-10-17T04:20:35.279Z,64.60
2018-10-17T04:22:39.754Z,64.50
2018-10-17T04:24:43.158Z,64.50
2018-10-17T04:26:46.160Z,64.50
2018-10-17T04:28:49.286Z,64.50
2018-10-17T04:30:52.971Z,64.60
2018-10-17T04:32:55.831Z,64.50
2018-10-17T04:34:58.907Z,64.50
2018-10-17T04:37:02.498Z,64.60
2018-10-17T04:39:05.408Z,64.50
2018-10-17T04:41:09.240Z,64.60
2018-10-17T04:43:12.218Z,64.60
2018-10-17T04:45:15.789Z,64.60
2018-10-17T04:47:20.025Z,64.70
2018-10-17T04:49:23.649Z,64.40
2018-10-17T04:51:26.555Z,64.50
2018-10-17T04:53:29.525Z,64.60
2018-10-17T04:55:32.417Z,64.70
2018-10-17T04:57:35.418Z,64.70
2018-10-17T04:59:38.335Z,64.80
2018-10-17T05:01:41.233Z,64.70
2018-10-17T05:03:44.134Z,64.90
2018-10-17T05:05:47.161Z,64.80
2018-10-17T05:07:50.837Z,64.60
2018-10-17T05:09:53.735Z,64.60
2018-10-17T05:11:57.442Z,65.00
2018-10-17T05:14:01.095Z,65.10
2018-10-17T05:16:03.986Z,65.10
2018-10-17T05:18:07.752Z,65.00
2018-10-17T05:20:11.156Z,65.20
2018-10-17T05:22:14.025Z,65.30
2018-10-17T05:24:17.410Z,65.30
2018-10-17T05:26:20.370Z,65.30
2018-10-17T05:28:24.034Z,66.10
2018-10-17T05:30:27.136Z,65.60
2018-10-17T05:32:30.069Z,65.70
2018-10-17T05:34:32.977Z,65.70
2018-10-17T05:36:35.886Z,65.80
2018-10-17T05:38:39.301Z,65.90
2018-10-17T05:40:42.977Z,65.90
2018-10-17T05:42:45.877Z,65.70
2018-10-17T05:44:49.533Z,65.60
2018-10-17T05:46:52.456Z,65.40
2018-10-17T05:48:56.127Z,65.80
2018-10-17T05:50:59.000Z,65.60
2018-10-17T05:53:02.011Z,65.80
2018-10-17T05:55:04.856Z,66.00
2018-10-17T05:57:07.714Z,66.40
2018-10-17T05:59:10.758Z,66.50
2018-10-17T06:01:14.444Z,66.60
2018-10-17T06:03:17.226Z,66.60
2018-10-17T06:05:22.369Z,66.60
2018-10-17T06:07:25.259Z,66.50
2018-10-17T06:09:28.921Z,66.60
2018-10-17T06:11:31.838Z,66.50
2018-10-17T06:13:35.641Z,66.50
2018-10-17T06:15:39.298Z,66.60
2018-10-17T06:17:42.297Z,66.50
2018-10-17T06:19:45.173Z,66.60
2018-10-17T06:21:48.093Z,66.60
2018-10-17T06:23:51.749Z,66.60
2018-10-17T06:25:54.637Z,66.60
2018-10-17T06:27:59.098Z,67.20
2018-10-17T06:30:01.994Z,67.10
2018-10-17T06:32:05.871Z,67.20
2018-10-17T06:34:09.919Z,67.40
2018-10-17T06:36:13.550Z,67.70
2018-10-17T06:38:16.447Z,67.40
2018-10-17T06:40:19.418Z,67.50
2018-10-17T06:42:23.077Z,67.70
2018-10-17T06:44:26.010Z,67.40
2018-10-17T06:46:29.696Z,67.40
2018-10-17T06:48:32.608Z,67.20
2018-10-17T06:50:36.262Z,67.40
2018-10-17T06:52:39.163Z,67.20
2018-10-17T06:54:42.046Z,67.30
2018-10-17T06:56:45.037Z,67.30
2018-10-17T06:58:48.702Z,67.30
2018-10-17T07:00:51.657Z,67.30
2018-10-17T07:02:54.557Z,67.40
2018-10-17T07:04:57.489Z,67.30
2018-10-17T07:07:01.190Z,67.40
2018-10-17T07:09:04.877Z,67.40
2018-10-17T07:11:08.606Z,67.40
2018-10-17T07:13:11.551Z,67.30
2018-10-17T07:15:15.286Z,67.30
2018-10-17T07:17:18.132Z,67.30
2018-10-17T07:19:21.012Z,67.30
2018-10-17T07:21:24.713Z,67.30
2018-10-17T07:23:27.597Z,67.30
2018-10-17T07:25:31.301Z,67.30
2018-10-17T07:27:34.957Z,67.30
2018-10-17T07:29:38.030Z,67.30
2018-10-17T07:31:42.292Z,67.30
2018-10-17T07:33:46.372Z,67.40
2018-10-17T07:35:49.463Z,67.40
2018-10-17T07:37:52.300Z,67.30
2018-10-17T07:39:55.948Z,67.40
2018-10-17T07:41:58.937Z,67.40
2018-10-17T07:44:01.810Z,67.30
2018-10-17T07:46:04.696Z,67.30
2018-10-17T07:48:07.665Z,67.20
2018-10-17T07:50:10.522Z,67.20
2018-10-17T07:52:13.432Z,67.10
2018-10-17T07:54:16.405Z,67.00
2018-10-17T07:56:20.026Z,66.90
2018-10-17T07:58:22.938Z,66.90
2018-10-17T08:00:26.692Z,66.80
2018-10-17T08:02:29.506Z,66.70
2018-10-17T08:04:33.742Z,66.50
2018-10-17T08:06:37.443Z,66.60
2018-10-17T08:08:41.086Z,66.50
2018-10-17T08:10:43.973Z,66.50
2018-10-17T08:12:46.877Z,66.40
2018-10-17T08:14:50.545Z,66.90
2018-10-17T08:16:53.466Z,66.00
2018-10-17T08:18:57.118Z,65.90
2018-10-17T08:21:01.805Z,65.80
2018-10-17T08:23:05.350Z,65.60
2018-10-17T08:25:08.278Z,65.40
2018-10-17T08:27:11.302Z,65.40
2018-10-17T08:29:14.212Z,65.20
2018-10-17T08:31:17.097Z,65.00
2018-10-17T08:33:20.001Z,64.90
2018-10-17T08:35:23.677Z,64.60
2018-10-17T08:37:26.844Z,64.60
2018-10-17T08:39:29.497Z,64.40
2018-10-17T08:41:32.394Z,64.20
2018-10-17T08:43:35.305Z,64.20
2018-10-17T08:45:38.197Z,63.90
2018-10-17T08:47:41.864Z,63.70
2018-10-17T08:49:44.765Z,63.60
2018-10-17T08:51:48.433Z,63.40
2018-10-17T08:53:51.342Z,63.30
2018-10-17T08:55:54.320Z,63.10
2018-10-17T08:57:57.235Z,63.10
2018-10-17T09:00:00.073Z,63.00
2018-10-17T09:02:03.012Z,62.90
2018-10-17T09:04:06.018Z,63.50
2018-10-17T09:06:09.006Z,62.90
2018-10-17T09:08:11.954Z,63.20
2018-10-17T09:10:15.653Z,63.50
2018-10-17T09:12:19.360Z,63.30
2018-10-17T09:14:22.239Z,63.20
2018-10-17T09:16:25.192Z,63.20
2018-10-17T09:18:28.039Z,63.30
2018-10-17T09:20:31.093Z,63.00
2018-10-17T09:22:34.041Z,62.70
2018-10-17T09:24:38.187Z,62.00
2018-10-17T09:28:57.621Z,60.90
2018-10-17T09:31:00.534Z,60.90
2018-10-17T09:33:03.428Z,60.80
2018-10-17T09:35:06.363Z,60.60
2018-10-17T09:37:09.233Z,60.30
2018-10-17T09:39:12.185Z,60.30
2018-10-17T09:41:15.977Z,60.20
2018-10-17T09:43:18.968Z,60.10
2018-10-17T09:45:21.883Z,60.00
2018-10-17T09:47:26.454Z,60.00
2018-10-17T09:49:29.374Z,59.70
2018-10-17T09:51:32.263Z,59.60
2018-10-17T09:53:35.166Z,59.50
2018-10-17T09:55:38.149Z,59.30
2018-10-17T09:57:41.816Z,59.60
2018-10-17T09:59:44.715Z,59.10
2018-10-17T10:01:47.612Z,58.90
2018-10-17T10:03:51.327Z,58.60
2018-10-17T10:05:54.299Z,58.50
2018-10-17T10:07:58.717Z,58.40
2018-10-17T10:10:02.416Z,58.40
2018-10-17T10:12:05.348Z,58.30
2018-10-17T10:14:08.382Z,58.20
2018-10-17T10:16:12.738Z,58.20
2018-10-17T10:18:15.569Z,58.10
2018-10-17T10:20:19.677Z,58.10
2018-10-17T10:22:22.666Z,57.90
2018-10-17T10:24:26.104Z,58.30
2018-10-17T10:26:29.885Z,57.10
2018-10-17T10:28:33.603Z,57.30
2018-10-17T10:30:36.745Z,57.20
2018-10-17T10:32:40.406Z,57.10
2018-10-17T10:34:43.306Z,57.00
2018-10-17T10:36:46.223Z,56.70
2018-10-17T10:38:49.880Z,56.70
2018-10-17T10:40:52.770Z,56.60
2018-10-17T10:42:55.682Z,56.70
2018-10-17T10:44:59.840Z,56.50
2018-10-17T10:47:02.641Z,56.40
2018-10-17T10:49:07.112Z,56.10
2018-10-17T10:51:10.956Z,56.30
2018-10-17T10:53:13.745Z,55.90
2018-10-17T10:55:18.185Z,55.70
2018-10-17T10:57:22.315Z,55.80
2018-10-17T10:59:26.119Z,55.70
2018-10-17T11:01:28.877Z,55.60
2018-10-17T11:03:32.521Z,55.60
2018-10-17T11:05:36.133Z,55.50
2018-10-17T11:07:39.640Z,55.40
2018-10-17T11:09:42.566Z,55.30
2018-10-17T11:11:45.455Z,55.00
2018-10-17T11:13:49.960Z,54.80
2018-10-17T11:15:54.749Z,54.70
2018-10-17T11:17:57.646Z,54.70
2018-10-17T11:20:02.192Z,54.70
2018-10-17T11:22:05.967Z,54.80
2018-10-17T11:24:08.710Z,54.80
2018-10-17T11:26:11.732Z,54.70
2018-10-17T11:28:15.433Z,54.50
2018-10-17T11:30:19.097Z,54.40
2018-10-17T11:32:22.214Z,54.30
2018-10-17T11:34:25.865Z,54.00
2018-10-17T11:36:28.749Z,54.00
2018-10-17T11:38:31.650Z,54.00
2018-10-17T11:40:34.637Z,54.00
2018-10-17T11:42:37.950Z,53.60
2018-10-17T11:44:41.642Z,53.50
2018-10-17T11:46:46.062Z,53.20
2018-10-17T11:48:49.714Z,53.50
2018-10-17T11:50:52.648Z,52.80
2018-10-17T11:52:56.373Z,52.70
2018-10-17T11:54:59.225Z,52.60
2018-10-17T11:57:02.240Z,52.60
2018-10-17T11:59:05.073Z,52.70
2018-10-17T12:01:08.985Z,53.20
2018-10-17T12:03:12.017Z,52.40
2018-10-17T12:05:15.331Z,51.60
2018-10-17T12:07:17.802Z,52.10
2018-10-17T12:09:20.726Z,52.10
2018-10-17T12:11:25.009Z,51.90
2018-10-17T12:13:27.802Z,51.80
2018-10-17T12:15:30.725Z,51.80
2018-10-17T12:17:33.618Z,51.70
2018-10-17T12:19:36.510Z,51.60
2018-10-17T12:21:40.022Z,51.40
2018-10-17T12:23:43.621Z,51.10
2018-10-17T12:25:46.932Z,50.90
2018-10-17T12:27:49.885Z,50.60
2018-10-17T12:29:53.529Z,50.10
2018-10-17T12:31:56.443Z,50.00
2018-10-17T12:33:59.513Z,50.00
2018-10-17T12:36:03.879Z,49.60
2018-10-17T12:38:06.827Z,49.60
2018-10-17T12:40:09.854Z,49.50
2018-10-17T12:42:12.692Z,49.30
2018-10-17T12:44:15.653Z,49.00
2018-10-17T12:46:18.505Z,48.80
2018-10-17T12:48:21.591Z,48.50
2018-10-17T12:50:24.604Z,48.40
2018-10-17T12:52:27.930Z,48.80
2018-10-17T12:54:30.826Z,49.20
2018-10-17T12:56:33.719Z,48.30
2018-10-17T12:58:36.604Z,47.90
2018-10-17T13:00:39.523Z,47.20
2018-10-17T13:02:43.197Z,45.60
2018-10-17T13:04:46.849Z,45.30
2018-10-17T13:06:49.752Z,45.20
2018-10-17T13:08:52.633Z,45.00
2018-10-17T13:10:55.532Z,44.80
2018-10-17T13:12:59.952Z,44.10
2018-10-17T13:15:04.433Z,44.10
2018-10-17T13:17:07.328Z,44.00
2018-10-17T13:19:11.015Z,43.60
2018-10-17T13:21:13.820Z,43.80
2018-10-17T13:23:16.863Z,43.70
2018-10-17T13:25:20.857Z,43.10
2018-10-17T13:27:23.794Z,43.00
2018-10-17T13:29:26.697Z,42.80
2018-10-17T13:31:30.340Z,42.80
2018-10-17T13:33:33.235Z,42.70
2018-10-17T13:35:36.237Z,42.20
2018-10-17T13:37:41.459Z,41.60
2018-10-17T13:39:44.366Z,41.60
2018-10-17T13:41:47.347Z,41.50
2018-10-17T13:43:50.256Z,41.20
2018-10-17T13:45:54.313Z,41.20
2018-10-17T13:47:57.360Z,41.10
2018-10-17T13:50:00.242Z,41.40
2018-10-17T13:52:03.854Z,41.20
2018-10-17T13:54:06.839Z,41.00
2018-10-17T13:56:09.778Z,40.80
2018-10-17T13:58:13.496Z,40.50
2018-10-17T14:00:16.363Z,40.40
2018-10-17T14:02:19.999Z,40.10
2018-10-17T14:04:23.366Z,40.50
2018-10-17T14:06:26.347Z,40.50
2018-10-17T14:08:29.986Z,40.30
2018-10-17T14:10:32.861Z,40.30
2018-10-17T14:12:35.760Z,40.00
2018-10-17T14:14:38.634Z,39.90
2018-10-17T14:16:41.552Z,39.70
2018-10-17T14:18:45.249Z,39.50
2018-10-17T14:20:49.815Z,39.70
2018-10-17T14:22:52.853Z,39.60
2018-10-17T14:24:57.094Z,39.60
2018-10-17T14:27:00.033Z,39.50
2018-10-17T14:29:02.877Z,39.60
2018-10-17T14:31:05.933Z,39.50
2018-10-17T14:33:08.854Z,39.50
2018-10-17T14:35:11.712Z,39.40
2018-10-17T14:37:14.669Z,39.40
2018-10-17T14:39:17.649Z,39.40
2018-10-17T14:41:21.408Z,39.00
2018-10-17T14:43:24.986Z,39.10
2018-10-17T14:45:27.913Z,39.00
2018-10-17T14:47:30.791Z,38.90
2018-10-17T14:49:33.681Z,38.70
2018-10-17T14:51:37.021Z,38.50
2018-10-17T14:53:39.966Z,38.50
2018-10-17T14:55:43.729Z,38.50
2018-10-17T14:57:47.326Z,38.60
2018-10-17T14:59:50.360Z,38.50
2018-10-17T15:01:53.986Z,38.60
2018-10-17T15:03:56.878Z,38.60
2018-10-17T15:05:59.893Z,38.60
2018-10-17T15:08:02.771Z,38.70
2018-10-17T15:10:05.815Z,38.60
2018-10-17T15:12:09.618Z,38.70
2018-10-17T15:14:12.456Z,38.60
2018-10-17T15:16:15.328Z,38.60
2018-10-17T15:18:19.151Z,39.00
2018-10-17T15:20:23.542Z,39.10
2018-10-17T15:22:27.201Z,39.20
2018-10-17T15:24:30.317Z,39.20
2018-10-17T15:26:33.925Z,39.30
2018-10-17T15:28:37.661Z,39.20
2018-10-17T15:30:40.671Z,38.90
2018-10-17T15:32:43.544Z,38.90
2018-10-17T15:34:46.446Z,39.00
2018-10-17T15:36:49.390Z,39.20
2018-10-17T15:38:53.030Z,39.60
2018-10-17T15:40:55.886Z,39.40
2018-10-17T15:42:58.813Z,39.60
2018-10-17T15:45:01.740Z,39.70
2018-10-17T15:47:05.345Z,39.70
2018-10-17T15:49:08.498Z,39.70
2018-10-17T15:51:11.905Z,39.70
2018-10-17T15:53:15.824Z,39.90
2018-10-17T15:55:18.729Z,39.80
2018-10-17T15:57:21.639Z,40.00
2018-10-17T15:59:24.545Z,40.00
2018-10-17T16:01:28.194Z,40.20
2018-10-17T16:03:31.093Z,40.20
2018-10-17T16:05:34.007Z,40.30
2018-10-17T16:07:36.944Z,40.50
2018-10-17T16:09:39.835Z,40.10
2018-10-17T16:11:42.828Z,40.80
2018-10-17T16:13:46.405Z,41.00
2018-10-17T16:15:49.265Z,41.00
2018-10-17T16:17:52.212Z,41.10
2018-10-17T16:19:55.972Z,41.40
2018-10-17T16:21:58.857Z,41.30
2018-10-17T16:24:01.811Z,41.50
2018-10-17T16:26:04.891Z,41.60
2018-10-17T16:28:08.411Z,41.90
2018-10-17T16:30:11.498Z,41.80
2018-10-17T16:32:14.585Z,42.00
2018-10-17T16:34:17.364Z,42.20
2018-10-17T16:36:20.321Z,42.40
2018-10-17T16:38:24.065Z,42.70
2018-10-17T16:40:27.744Z,43.50
2018-10-17T16:42:30.597Z,43.10
2018-10-17T16:44:33.593Z,43.40
2018-10-17T16:46:36.473Z,43.60
2018-10-17T16:48:40.207Z,43.80
2018-10-17T16:50:43.376Z,44.00
2018-10-17T16:52:46.077Z,44.10
2018-10-17T16:54:49.764Z,44.60
2018-10-17T16:56:52.788Z,44.50
2018-10-17T16:58:56.313Z,44.70
2018-10-17T17:00:59.218Z,44.80
2018-10-17T17:03:02.312Z,44.80
2018-10-17T17:05:06.709Z,45.40
2018-10-17T17:07:10.121Z,45.50
2018-10-17T17:09:13.100Z,45.60
2018-10-17T17:11:16.431Z,45.80
2018-10-17T17:13:20.058Z,46.10
2018-10-17T17:15:23.897Z,46.30
2018-10-17T17:17:28.277Z,46.30
2018-10-17T17:19:31.271Z,46.30
2018-10-17T17:21:34.162Z,46.40
2018-10-17T17:23:37.038Z,46.60
2018-10-17T17:25:40.570Z,46.70
2018-10-17T17:27:44.966Z,46.90
2018-10-17T17:29:48.003Z,46.90
2018-10-17T17:31:50.801Z,47.00
2018-10-17T17:33:53.715Z,47.10
2018-10-17T17:35:58.161Z,47.30
2018-10-17T17:38:01.022Z,47.30
2018-10-17T17:40:03.998Z,47.40
2018-10-17T17:42:07.030Z,47.50
2018-10-17T17:44:10.003Z,47.60
2018-10-17T17:46:12.946Z,47.70
2018-10-17T17:48:15.815Z,47.90
2018-10-17T17:50:18.809Z,48.00
2018-10-17T17:52:21.783Z,48.10
2018-10-17T17:54:25.787Z,48.30
2018-10-17T17:56:28.676Z,48.30
2018-10-17T17:58:31.724Z,48.50
2018-10-17T18:00:35.218Z,49.30
2018-10-17T18:02:38.140Z,48.60
2018-10-17T18:04:41.157Z,48.80
2018-10-17T18:06:44.789Z,49.00
2018-10-17T18:08:48.090Z,49.00
2018-10-17T18:10:51.001Z,49.10
2018-10-17T18:12:53.897Z,49.20
2018-10-17T18:14:57.613Z,49.50
2018-10-17T18:17:00.661Z,49.40
2018-10-17T18:19:03.552Z,49.50
2018-10-17T18:21:06.424Z,49.60
2018-10-17T18:23:10.841Z,49.70
2018-10-17T18:25:14.167Z,49.70
2018-10-17T18:27:17.074Z,49.80
2018-10-17T18:29:20.467Z,49.80
2018-10-17T18:31:23.375Z,50.00
2018-10-17T18:33:26.265Z,50.00
2018-10-17T18:35:29.557Z,50.00
2018-10-17T18:37:32.442Z,50.10
2018-10-17T18:39:36.829Z,50.20
2018-10-17T18:41:39.738Z,50.20
2018-10-17T18:43:42.631Z,50.20
2018-10-17T18:45:46.462Z,50.30
2018-10-17T18:47:50.219Z,50.30
2018-10-17T18:49:53.793Z,50.40
2018-10-17T18:51:56.675Z,50.30
2018-10-17T18:53:59.827Z,50.40
2018-10-17T18:56:02.954Z,50.50
2018-10-17T18:58:06.541Z,50.70
2018-10-17T19:00:09.572Z,50.60
2018-10-17T19:02:14.208Z,50.80
2018-10-17T19:04:17.570Z,50.80
2018-10-17T19:06:21.285Z,51.10
2018-10-17T19:08:25.122Z,51.20
2018-10-17T19:10:27.985Z,51.10
2018-10-17T19:12:30.901Z,51.20
2018-10-17T19:14:33.821Z,51.20
2018-10-17T19:16:36.753Z,51.30
2018-10-17T19:18:40.044Z,51.30
2018-10-17T19:20:42.926Z,51.20
2018-10-17T19:22:46.070Z,51.30
2018-10-17T19:24:49.914Z,51.70
2018-10-17T19:26:52.842Z,51.70
2018-10-17T19:28:57.251Z,51.80
2018-10-17T19:31:00.586Z,51.80
2018-10-17T19:33:04.478Z,51.90
2018-10-17T19:35:07.375Z,51.90
2018-10-17T19:37:10.314Z,51.90
2018-10-17T19:39:14.798Z,52.00
2018-10-17T19:41:17.610Z,52.10
2018-10-17T19:43:20.628Z,52.20
2018-10-17T19:45:24.271Z,52.50
2018-10-17T19:47:27.245Z,52.40
2018-10-17T19:49:30.397Z,52.40
2018-10-17T19:51:33.302Z,52.60
2018-10-17T19:53:36.345Z,52.70
2018-10-17T19:55:40.063Z,52.90
2018-10-17T19:57:44.448Z,52.90
2018-10-17T19:59:47.309Z,52.90
2018-10-17T20:01:50.216Z,53.00
2018-10-17T20:03:53.181Z,53.00
2018-10-17T20:05:56.076Z,53.20
2018-10-17T20:08:00.606Z,53.20
2018-10-17T20:10:04.261Z,53.30
2018-10-17T20:12:07.133Z,53.20
2018-10-17T20:14:10.085Z,53.20
2018-10-17T20:16:13.718Z,53.50
2018-10-17T20:18:16.662Z,53.30
2018-10-17T20:20:20.397Z,53.60
2018-10-17T20:22:23.284Z,53.50
2018-10-17T20:24:26.173Z,53.60
2018-10-17T20:26:29.107Z,53.70
2018-10-17T20:28:33.285Z,53.80
2018-10-17T20:30:37.073Z,53.90
2018-10-17T20:32:39.989Z,53.90
2018-10-17T20:34:43.665Z,54.00
2018-10-17T20:36:46.635Z,54.00
2018-10-17T20:38:49.515Z,54.10
2018-10-17T20:40:52.411Z,54.10
2018-10-17T20:42:56.081Z,54.10
2018-10-17T20:44:59.050Z,54.10
2018-10-17T20:47:02.735Z,54.20
2018-10-17T20:49:05.681Z,54.30
2018-10-17T20:51:09.367Z,54.50
2018-10-17T20:53:12.241Z,54.40
2018-10-17T20:55:15.137Z,54.50
2018-10-17T20:57:19.667Z,54.70
2018-10-17T20:59:24.072Z,54.80
2018-10-17T21:01:28.461Z,54.90
2018-10-17T21:03:31.468Z,54.80
2018-10-17T21:05:34.488Z,55.00
2018-10-17T21:07:38.129Z,55.20
2018-10-17T21:09:41.054Z,55.00
2018-10-17T21:11:44.705Z,55.20
2018-10-17T21:13:47.589Z,55.20
2018-10-17T21:15:50.494Z,55.30
2018-10-17T21:17:53.997Z,55.30
2018-10-17T21:19:57.650Z,55.70
2018-10-17T21:22:00.561Z,55.30
2018-10-17T21:24:03.442Z,55.40
2018-10-17T21:26:06.933Z,55.50
2018-10-17T21:28:10.259Z,55.50
2018-10-17T21:30:14.638Z,55.60
2018-10-17T21:32:17.619Z,55.70
2018-10-17T21:34:20.421Z,55.70
2018-10-17T21:36:23.301Z,55.70
2018-10-17T21:38:27.042Z,56.50
2018-10-17T21:40:29.957Z,55.80
2018-10-17T21:42:32.845Z,55.80
2018-10-17T21:44:35.756Z,55.90
2018-10-17T21:46:39.421Z,56.10
2018-10-17T21:48:42.315Z,56.00
2018-10-17T21:50:45.189Z,56.10
2018-10-17T21:52:48.104Z,56.10
2018-10-17T21:54:51.804Z,56.30
2018-10-17T21:56:56.439Z,56.30
2018-10-17T21:58:59.390Z,56.30
2018-10-17T22:01:02.309Z,56.40
2018-10-17T22:03:05.976Z,56.50
2018-10-17T22:05:09.092Z,56.50
2018-10-17T22:07:12.995Z,56.70
2018-10-17T22:09:16.672Z,56.70
2018-10-17T22:11:20.378Z,56.80
2018-10-17T22:13:24.773Z,56.90
2018-10-17T22:15:29.189Z,57.00
2018-10-17T22:17:32.188Z,56.90
2018-10-17T22:19:36.298Z,57.20
2018-10-17T22:21:39.183Z,57.00
2018-10-17T22:23:43.677Z,57.30
2018-10-17T22:25:47.665Z,57.30
2018-10-17T22:27:52.073Z,57.50
2018-10-17T22:29:54.995Z,57.40
2018-10-17T22:31:57.923Z,57.60
2018-10-17T22:34:00.751Z,57.60
2018-10-17T22:36:03.766Z,57.70
2018-10-17T22:38:07.974Z,57.90
2018-10-17T22:40:10.843Z,57.80
2018-10-17T22:42:14.759Z,58.70
2018-10-17T22:44:18.405Z,58.00
2018-10-17T22:46:21.281Z,58.00
2018-10-17T22:48:24.290Z,58.10
2018-10-17T22:50:28.720Z,58.20
2018-10-17T22:52:32.377Z,58.30
2018-10-17T22:54:35.389Z,58.30
2018-10-17T22:56:39.061Z,59.00
2018-10-17T22:58:41.941Z,58.50
2018-10-17T23:00:44.836Z,58.60
2018-10-17T23:02:47.744Z,58.70
2018-10-17T23:04:50.609Z,58.80
2018-10-17T23:06:53.530Z,58.80
2018-10-17T23:08:56.525Z,58.90
2018-10-17T23:10:59.409Z,58.90
2018-10-17T23:13:03.273Z,59.10
2018-10-17T23:15:07.660Z,59.20
2018-10-17T23:17:10.541Z,59.20
2018-10-17T23:19:13.451Z,59.20
2018-10-17T23:21:16.489Z,59.30
2018-10-17T23:23:19.652Z,59.30
2018-10-17T23:25:23.044Z,59.30
2018-10-17T23:27:26.022Z,59.50
2018-10-17T23:29:29.649Z,59.70
2018-10-17T23:31:32.557Z,59.60
2018-10-17T23:33:35.452Z,59.60
2018-10-17T23:35:39.152Z,59.60
2018-10-17T23:37:42.228Z,60.50
2018-10-17T23:39:47.553Z,60.00
2018-10-17T23:41:50.443Z,59.90
2018-10-17T23:43:53.584Z,60.00
2018-10-17T23:45:56.408Z,60.10
2018-10-17T23:47:59.474Z,60.30
2018-10-17T23:50:03.128Z,60.60
2018-10-17T23:52:06.801Z,60.60
2018-10-17T23:54:11.294Z,60.60
2018-10-17T23:56:14.268Z,60.60
2018-10-17T23:58:17.907Z,60.70
